sensor_id;sensor_type;location;lat;lon;timestamp;P1;durP1;ratioP1;P2;durP2;ratioP2
9934;SDS011;5006;41.828;23.478;2023-12-28T00:00:16;2.60;;;1.88;;
9934;SDS011;5006;41.828;23.478;2023-12-28T00:01:23;1.95;;;1.50;;
9934;SDS011;5006;41.828;23.478;2023-12-28T00:02:28;3.40;;;1.45;;
9934;SDS011;5006;41.828;23.478;2023-12-28T00:03:34;1.85;;;1.38;;
9934;SDS011;5006;41.828;23.478;2023-12-28T00:04:39;1.52;;;1.30;;
9934;SDS011;5006;41.828;23.478;2023-12-28T00:05:46;1.98;;;1.20;;
9934;SDS011;5006;41.828;23.478;2023-12-28T00:06:51;1.55;;;1.25;;
9934;SDS011;5006;41.828;23.478;2023-12-28T00:07:58;1.50;;;1.08;;
9934;SDS011;5006;41.828;23.478;2023-12-28T00:09:03;2.90;;;1.60;;
9934;SDS011;5006;41.828;23.478;2023-12-28T00:10:10;2.75;;;1.20;;
9934;SDS011;5006;41.828;23.478;2023-12-28T00:11:16;2.03;;;1.33;;
9934;SDS011;5006;41.828;23.478;2023-12-28T00:12:23;1.65;;;1.30;;
9934;SDS011;5006;41.828;23.478;2023-12-28T00:13:29;1.90;;;1.10;;
9934;SDS011;5006;41.828;23.478;2023-12-28T00:14:35;1.40;;;1.27;;
9934;SDS011;5006;41.828;23.478;2023-12-28T00:15:40;1.20;;;1.10;;
9934;SDS011;5006;41.828;23.478;2023-12-28T00:16:47;2.38;;;1.20;;
9934;SDS011;5006;41.828;23.478;2023-12-28T00:17:52;1.20;;;1.10;;
9934;SDS011;5006;41.828;23.478;2023-12-28T00:18:58;1.23;;;1.00;;
9934;SDS011;5006;41.828;23.478;2023-12-28T00:20:03;3.10;;;1.20;;
9934;SDS011;5006;41.828;23.478;2023-12-28T00:21:11;2.00;;;1.30;;
9934;SDS011;5006;41.828;23.478;2023-12-28T00:22:17;1.27;;;1.10;;
9934;SDS011;5006;41.828;23.478;2023-12-28T00:23:23;1.77;;;1.40;;
9934;SDS011;5006;41.828;23.478;2023-12-28T00:24:28;1.70;;;1.40;;
9934;SDS011;5006;41.828;23.478;2023-12-28T00:25:36;2.88;;;1.50;;
9934;SDS011;5006;41.828;23.478;2023-12-28T00:26:41;1.83;;;1.48;;
9934;SDS011;5006;41.828;23.478;2023-12-28T00:27:48;3.22;;;1.40;;
9934;SDS011;5006;41.828;23.478;2023-12-28T00:28:54;1.73;;;1.27;;
9934;SDS011;5006;41.828;23.478;2023-12-28T00:30:01;1.95;;;1.48;;
9934;SDS011;5006;41.828;23.478;2023-12-28T00:31:09;1.83;;;1.33;;
9934;SDS011;5006;41.828;23.478;2023-12-28T00:32:15;1.30;;;1.15;;
9934;SDS011;5006;41.828;23.478;2023-12-28T00:33:20;1.95;;;1.40;;
9934;SDS011;5006;41.828;23.478;2023-12-28T00:34:26;1.83;;;1.10;;
9934;SDS011;5006;41.828;23.478;2023-12-28T00:35:31;1.63;;;1.30;;
9934;SDS011;5006;41.828;23.478;2023-12-28T00:36:37;3.17;;;1.70;;
9934;SDS011;5006;41.828;23.478;2023-12-28T00:37:42;1.40;;;1.30;;
9934;SDS011;5006;41.828;23.478;2023-12-28T00:38:49;2.08;;;1.35;;
9934;SDS011;5006;41.828;23.478;2023-12-28T00:39:54;2.50;;;1.50;;
9934;SDS011;5006;41.828;23.478;2023-12-28T00:41:01;2.17;;;1.33;;
9934;SDS011;5006;41.828;23.478;2023-12-28T00:42:07;1.88;;;1.48;;
9934;SDS011;5006;41.828;23.478;2023-12-28T00:43:13;2.13;;;1.50;;
9934;SDS011;5006;41.828;23.478;2023-12-28T00:44:18;2.40;;;1.50;;
9934;SDS011;5006;41.828;23.478;2023-12-28T00:45:24;1.27;;;1.13;;
9934;SDS011;5006;41.828;23.478;2023-12-28T00:46:30;1.95;;;1.30;;
9934;SDS011;5006;41.828;23.478;2023-12-28T00:47:36;2.35;;;1.48;;
9934;SDS011;5006;41.828;23.478;2023-12-28T00:48:41;2.50;;;1.48;;
9934;SDS011;5006;41.828;23.478;2023-12-28T00:49:47;2.70;;;1.60;;
9934;SDS011;5006;41.828;23.478;2023-12-28T00:50:53;3.40;;;1.70;;
9934;SDS011;5006;41.828;23.478;2023-12-28T00:52:03;1.88;;;1.45;;
9934;SDS011;5006;41.828;23.478;2023-12-28T00:53:09;2.25;;;1.40;;
9934;SDS011;5006;41.828;23.478;2023-12-28T00:54:15;2.33;;;1.45;;
9934;SDS011;5006;41.828;23.478;2023-12-28T00:55:20;3.33;;;1.80;;
9934;SDS011;5006;41.828;23.478;2023-12-28T00:56:27;3.72;;;1.80;;
9934;SDS011;5006;41.828;23.478;2023-12-28T00:57:32;2.47;;;1.80;;
9934;SDS011;5006;41.828;23.478;2023-12-28T00:58:39;2.42;;;1.80;;
9934;SDS011;5006;41.828;23.478;2023-12-28T00:59:44;3.42;;;2.17;;
9934;SDS011;5006;41.828;23.478;2023-12-28T01:00:50;2.53;;;1.70;;
9934;SDS011;5006;41.828;23.478;2023-12-28T01:02:00;2.55;;;1.67;;
9934;SDS011;5006;41.828;23.478;2023-12-28T01:03:05;2.45;;;1.73;;
9934;SDS011;5006;41.828;23.478;2023-12-28T01:04:11;2.00;;;1.55;;
9934;SDS011;5006;41.828;23.478;2023-12-28T01:05:17;2.13;;;1.42;;
9934;SDS011;5006;41.828;23.478;2023-12-28T01:06:25;2.33;;;1.73;;
9934;SDS011;5006;41.828;23.478;2023-12-28T01:07:33;2.28;;;1.75;;
9934;SDS011;5006;41.828;23.478;2023-12-28T01:08:40;2.80;;;1.70;;
9934;SDS011;5006;41.828;23.478;2023-12-28T01:09:45;1.98;;;1.50;;
9934;SDS011;5006;41.828;23.478;2023-12-28T01:10:51;2.10;;;1.38;;
9934;SDS011;5006;41.828;23.478;2023-12-28T01:11:57;2.85;;;1.40;;
9934;SDS011;5006;41.828;23.478;2023-12-28T01:13:04;2.03;;;1.35;;
9934;SDS011;5006;41.828;23.478;2023-12-28T01:14:10;3.40;;;1.70;;
9934;SDS011;5006;41.828;23.478;2023-12-28T01:15:17;1.77;;;1.48;;
9934;SDS011;5006;41.828;23.478;2023-12-28T01:16:25;2.95;;;1.48;;
9934;SDS011;5006;41.828;23.478;2023-12-28T01:17:32;2.72;;;1.60;;
9934;SDS011;5006;41.828;23.478;2023-12-28T01:18:37;2.33;;;1.40;;
9934;SDS011;5006;41.828;23.478;2023-12-28T01:19:44;2.50;;;1.17;;
9934;SDS011;5006;41.828;23.478;2023-12-28T01:20:49;1.73;;;1.40;;
9934;SDS011;5006;41.828;23.478;2023-12-28T01:21:55;1.58;;;1.10;;
9934;SDS011;5006;41.828;23.478;2023-12-28T01:23:00;3.13;;;1.42;;
9934;SDS011;5006;41.828;23.478;2023-12-28T01:24:06;2.05;;;1.17;;
9934;SDS011;5006;41.828;23.478;2023-12-28T01:25:11;1.13;;;1.00;;
9934;SDS011;5006;41.828;23.478;2023-12-28T01:26:17;1.60;;;1.23;;
9934;SDS011;5006;41.828;23.478;2023-12-28T01:27:23;1.63;;;1.20;;
9934;SDS011;5006;41.828;23.478;2023-12-28T01:28:30;1.90;;;1.23;;
9934;SDS011;5006;41.828;23.478;2023-12-28T01:29:35;1.85;;;1.20;;
9934;SDS011;5006;41.828;23.478;2023-12-28T01:30:41;1.98;;;1.40;;
9934;SDS011;5006;41.828;23.478;2023-12-28T01:31:48;1.98;;;1.48;;
9934;SDS011;5006;41.828;23.478;2023-12-28T01:32:55;2.63;;;1.23;;
9934;SDS011;5006;41.828;23.478;2023-12-28T01:34:00;1.77;;;1.30;;
9934;SDS011;5006;41.828;23.478;2023-12-28T01:35:06;1.48;;;1.20;;
9934;SDS011;5006;41.828;23.478;2023-12-28T01:36:16;2.08;;;1.40;;
9934;SDS011;5006;41.828;23.478;2023-12-28T01:37:23;1.75;;;1.30;;
9934;SDS011;5006;41.828;23.478;2023-12-28T01:38:29;2.42;;;1.42;;
9934;SDS011;5006;41.828;23.478;2023-12-28T01:39:36;1.30;;;1.00;;
9934;SDS011;5006;41.828;23.478;2023-12-28T01:40:43;2.38;;;1.65;;
9934;SDS011;5006;41.828;23.478;2023-12-28T01:41:49;2.42;;;1.70;;
9934;SDS011;5006;41.828;23.478;2023-12-28T01:42:56;1.35;;;1.20;;
9934;SDS011;5006;41.828;23.478;2023-12-28T01:44:02;2.10;;;1.50;;
9934;SDS011;5006;41.828;23.478;2023-12-28T01:45:09;1.33;;;0.98;;
9934;SDS011;5006;41.828;23.478;2023-12-28T01:46:15;2.22;;;1.40;;
9934;SDS011;5006;41.828;23.478;2023-12-28T01:47:24;1.88;;;1.25;;
9934;SDS011;5006;41.828;23.478;2023-12-28T01:48:30;2.40;;;1.10;;
9934;SDS011;5006;41.828;23.478;2023-12-28T01:49:37;2.47;;;1.20;;
9934;SDS011;5006;41.828;23.478;2023-12-28T01:50:42;1.83;;;1.20;;
9934;SDS011;5006;41.828;23.478;2023-12-28T01:51:48;1.77;;;1.20;;
9934;SDS011;5006;41.828;23.478;2023-12-28T01:52:54;1.25;;;1.15;;
9934;SDS011;5006;41.828;23.478;2023-12-28T01:54:02;1.17;;;1.08;;
9934;SDS011;5006;41.828;23.478;2023-12-28T01:55:08;2.88;;;0.93;;
9934;SDS011;5006;41.828;23.478;2023-12-28T01:56:15;1.23;;;0.85;;
9934;SDS011;5006;41.828;23.478;2023-12-28T01:57:22;1.23;;;0.80;;
9934;SDS011;5006;41.828;23.478;2023-12-28T01:58:30;0.70;;;0.70;;
9934;SDS011;5006;41.828;23.478;2023-12-28T01:59:40;1.38;;;0.90;;
9934;SDS011;5006;41.828;23.478;2023-12-28T02:00:47;1.10;;;0.88;;
9934;SDS011;5006;41.828;23.478;2023-12-28T02:01:54;1.00;;;0.90;;
9934;SDS011;5006;41.828;23.478;2023-12-28T02:03:00;2.78;;;0.90;;
9934;SDS011;5006;41.828;23.478;2023-12-28T02:04:06;0.77;;;0.77;;
9934;SDS011;5006;41.828;23.478;2023-12-28T02:05:13;1.08;;;0.68;;
9934;SDS011;5006;41.828;23.478;2023-12-28T02:06:20;1.38;;;1.00;;
9934;SDS011;5006;41.828;23.478;2023-12-28T02:07:29;2.05;;;1.10;;
9934;SDS011;5006;41.828;23.478;2023-12-28T02:08:37;1.77;;;1.13;;
9934;SDS011;5006;41.828;23.478;2023-12-28T02:09:44;1.88;;;1.42;;
9934;SDS011;5006;41.828;23.478;2023-12-28T02:10:49;1.77;;;1.15;;
9934;SDS011;5006;41.828;23.478;2023-12-28T02:11:55;1.10;;;0.80;;
9934;SDS011;5006;41.828;23.478;2023-12-28T02:13:01;2.38;;;1.30;;
9934;SDS011;5006;41.828;23.478;2023-12-28T02:14:08;1.30;;;0.80;;
9934;SDS011;5006;41.828;23.478;2023-12-28T02:15:14;1.45;;;1.13;;
9934;SDS011;5006;41.828;23.478;2023-12-28T02:16:32;1.33;;;1.20;;
9934;SDS011;5006;41.828;23.478;2023-12-28T02:17:43;1.20;;;1.00;;
9934;SDS011;5006;41.828;23.478;2023-12-28T02:18:53;1.95;;;1.10;;
9934;SDS011;5006;41.828;23.478;2023-12-28T02:20:01;2.50;;;1.05;;
9934;SDS011;5006;41.828;23.478;2023-12-28T02:21:10;1.30;;;0.93;;
9934;SDS011;5006;41.828;23.478;2023-12-28T02:22:19;1.05;;;0.77;;
9934;SDS011;5006;41.828;23.478;2023-12-28T02:23:28;1.27;;;0.90;;
9934;SDS011;5006;41.828;23.478;2023-12-28T02:25:50;0.80;;;0.80;;
9934;SDS011;5006;41.828;23.478;2023-12-28T02:26:56;1.13;;;1.02;;
9934;SDS011;5006;41.828;23.478;2023-12-28T02:28:01;2.30;;;1.10;;
9934;SDS011;5006;41.828;23.478;2023-12-28T02:29:09;1.23;;;0.80;;
9934;SDS011;5006;41.828;23.478;2023-12-28T02:30:15;1.20;;;1.10;;
9934;SDS011;5006;41.828;23.478;2023-12-28T02:31:26;1.00;;;0.90;;
9934;SDS011;5006;41.828;23.478;2023-12-28T02:32:37;0.95;;;0.90;;
9934;SDS011;5006;41.828;23.478;2023-12-28T02:33:50;1.88;;;1.10;;
9934;SDS011;5006;41.828;23.478;2023-12-28T02:35:01;3.63;;;1.27;;
9934;SDS011;5006;41.828;23.478;2023-12-28T02:36:15;1.67;;;1.20;;
9934;SDS011;5006;41.828;23.478;2023-12-28T02:37:27;1.35;;;1.10;;
9934;SDS011;5006;41.828;23.478;2023-12-28T02:38:36;1.92;;;1.33;;
9934;SDS011;5006;41.828;23.478;2023-12-28T02:39:43;2.22;;;1.30;;
9934;SDS011;5006;41.828;23.478;2023-12-28T02:40:53;1.52;;;1.05;;
9934;SDS011;5006;41.828;23.478;2023-12-28T02:42:00;1.60;;;1.33;;
9934;SDS011;5006;41.828;23.478;2023-12-28T02:43:07;1.88;;;1.45;;
9934;SDS011;5006;41.828;23.478;2023-12-28T02:44:14;1.80;;;1.35;;
9934;SDS011;5006;41.828;23.478;2023-12-28T02:45:21;1.35;;;1.10;;
9934;SDS011;5006;41.828;23.478;2023-12-28T02:46:27;1.83;;;1.30;;
9934;SDS011;5006;41.828;23.478;2023-12-28T02:47:34;2.70;;;1.50;;
9934;SDS011;5006;41.828;23.478;2023-12-28T02:48:39;1.92;;;1.25;;
9934;SDS011;5006;41.828;23.478;2023-12-28T02:49:46;1.90;;;1.30;;
9934;SDS011;5006;41.828;23.478;2023-12-28T02:50:51;2.55;;;1.48;;
9934;SDS011;5006;41.828;23.478;2023-12-28T02:51:57;1.48;;;1.25;;
9934;SDS011;5006;41.828;23.478;2023-12-28T02:53:03;1.23;;;1.00;;
9934;SDS011;5006;41.828;23.478;2023-12-28T02:54:10;2.17;;;1.25;;
9934;SDS011;5006;41.828;23.478;2023-12-28T02:55:17;3.80;;;1.20;;
9934;SDS011;5006;41.828;23.478;2023-12-28T02:56:24;2.70;;;1.75;;
9934;SDS011;5006;41.828;23.478;2023-12-28T02:57:30;1.48;;;1.17;;
9934;SDS011;5006;41.828;23.478;2023-12-28T02:58:36;1.45;;;1.20;;
9934;SDS011;5006;41.828;23.478;2023-12-28T02:59:42;2.15;;;1.33;;
9934;SDS011;5006;41.828;23.478;2023-12-28T03:00:49;1.70;;;1.02;;
9934;SDS011;5006;41.828;23.478;2023-12-28T03:01:54;1.52;;;1.05;;
9934;SDS011;5006;41.828;23.478;2023-12-28T03:03:00;1.35;;;1.10;;
9934;SDS011;5006;41.828;23.478;2023-12-28T03:04:06;1.83;;;1.25;;
9934;SDS011;5006;41.828;23.478;2023-12-28T03:05:14;1.20;;;0.90;;
9934;SDS011;5006;41.828;23.478;2023-12-28T03:06:20;1.38;;;1.10;;
9934;SDS011;5006;41.828;23.478;2023-12-28T03:07:27;2.90;;;1.20;;
9934;SDS011;5006;41.828;23.478;2023-12-28T03:08:32;1.27;;;1.17;;
9934;SDS011;5006;41.828;23.478;2023-12-28T03:09:37;2.13;;;1.17;;
9934;SDS011;5006;41.828;23.478;2023-12-28T03:10:44;1.73;;;1.30;;
9934;SDS011;5006;41.828;23.478;2023-12-28T03:11:52;1.38;;;1.15;;
9934;SDS011;5006;41.828;23.478;2023-12-28T03:12:58;2.67;;;1.27;;
9934;SDS011;5006;41.828;23.478;2023-12-28T03:14:05;1.35;;;1.10;;
9934;SDS011;5006;41.828;23.478;2023-12-28T03:15:12;1.65;;;1.23;;
9934;SDS011;5006;41.828;23.478;2023-12-28T03:16:18;1.17;;;1.08;;
9934;SDS011;5006;41.828;23.478;2023-12-28T03:17:25;2.10;;;1.20;;
9934;SDS011;5006;41.828;23.478;2023-12-28T03:18:31;3.55;;;1.10;;
9934;SDS011;5006;41.828;23.478;2023-12-28T03:19:38;2.33;;;1.60;;
9934;SDS011;5006;41.828;23.478;2023-12-28T03:20:43;4.22;;;1.83;;
9934;SDS011;5006;41.828;23.478;2023-12-28T03:21:50;2.40;;;1.50;;
9934;SDS011;5006;41.828;23.478;2023-12-28T03:22:56;1.52;;;1.30;;
9934;SDS011;5006;41.828;23.478;2023-12-28T03:24:03;3.05;;;1.40;;
9934;SDS011;5006;41.828;23.478;2023-12-28T03:25:09;1.83;;;1.20;;
9934;SDS011;5006;41.828;23.478;2023-12-28T03:26:15;3.60;;;1.42;;
9934;SDS011;5006;41.828;23.478;2023-12-28T03:27:23;1.90;;;1.50;;
9934;SDS011;5006;41.828;23.478;2023-12-28T03:28:29;1.92;;;1.50;;
9934;SDS011;5006;41.828;23.478;2023-12-28T03:29:35;1.20;;;1.10;;
9934;SDS011;5006;41.828;23.478;2023-12-28T03:30:42;2.08;;;1.13;;
9934;SDS011;5006;41.828;23.478;2023-12-28T03:31:47;2.50;;;1.33;;
9934;SDS011;5006;41.828;23.478;2023-12-28T03:32:54;3.15;;;1.27;;
9934;SDS011;5006;41.828;23.478;2023-12-28T03:33:59;1.55;;;1.40;;
9934;SDS011;5006;41.828;23.478;2023-12-28T03:35:06;1.30;;;1.20;;
9934;SDS011;5006;41.828;23.478;2023-12-28T03:36:17;1.95;;;1.30;;
9934;SDS011;5006;41.828;23.478;2023-12-28T03:37:24;1.42;;;1.02;;
9934;SDS011;5006;41.828;23.478;2023-12-28T03:38:30;1.08;;;0.93;;
9934;SDS011;5006;41.828;23.478;2023-12-28T03:39:36;1.55;;;1.02;;
9934;SDS011;5006;41.828;23.478;2023-12-28T03:40:42;1.23;;;0.93;;
9934;SDS011;5006;41.828;23.478;2023-12-28T03:41:51;1.83;;;1.02;;
9934;SDS011;5006;41.828;23.478;2023-12-28T03:42:58;1.27;;;1.00;;
9934;SDS011;5006;41.828;23.478;2023-12-28T03:44:05;1.08;;;0.98;;
9934;SDS011;5006;41.828;23.478;2023-12-28T03:45:11;1.15;;;0.93;;
9934;SDS011;5006;41.828;23.478;2023-12-28T03:46:19;1.33;;;1.00;;
9934;SDS011;5006;41.828;23.478;2023-12-28T03:47:24;2.55;;;1.30;;
9934;SDS011;5006;41.828;23.478;2023-12-28T03:48:31;1.77;;;1.20;;
9934;SDS011;5006;41.828;23.478;2023-12-28T03:49:36;1.55;;;1.10;;
9934;SDS011;5006;41.828;23.478;2023-12-28T03:50:44;3.03;;;1.27;;
9934;SDS011;5006;41.828;23.478;2023-12-28T03:51:50;1.33;;;1.13;;
9934;SDS011;5006;41.828;23.478;2023-12-28T03:52:57;1.73;;;1.10;;
9934;SDS011;5006;41.828;23.478;2023-12-28T03:54:03;2.35;;;1.70;;
9934;SDS011;5006;41.828;23.478;2023-12-28T03:55:10;2.45;;;1.60;;
9934;SDS011;5006;41.828;23.478;2023-12-28T03:56:20;2.58;;;1.73;;
9934;SDS011;5006;41.828;23.478;2023-12-28T03:57:27;2.28;;;1.98;;
9934;SDS011;5006;41.828;23.478;2023-12-28T03:58:35;3.78;;;2.60;;
9934;SDS011;5006;41.828;23.478;2023-12-28T03:59:41;3.50;;;3.15;;
9934;SDS011;5006;41.828;23.478;2023-12-28T04:00:47;3.83;;;2.72;;
9934;SDS011;5006;41.828;23.478;2023-12-28T04:01:53;4.35;;;2.60;;
9934;SDS011;5006;41.828;23.478;2023-12-28T04:02:58;3.13;;;2.35;;
9934;SDS011;5006;41.828;23.478;2023-12-28T04:04:05;2.97;;;2.33;;
9934;SDS011;5006;41.828;23.478;2023-12-28T04:05:10;2.10;;;1.90;;
9934;SDS011;5006;41.828;23.478;2023-12-28T04:06:16;2.55;;;1.88;;
9934;SDS011;5006;41.828;23.478;2023-12-28T04:07:21;2.67;;;1.80;;
9934;SDS011;5006;41.828;23.478;2023-12-28T04:08:27;2.80;;;2.00;;
9934;SDS011;5006;41.828;23.478;2023-12-28T04:09:33;2.60;;;2.08;;
9934;SDS011;5006;41.828;23.478;2023-12-28T04:10:39;2.47;;;2.13;;
9934;SDS011;5006;41.828;23.478;2023-12-28T04:11:45;3.67;;;2.55;;
9934;SDS011;5006;41.828;23.478;2023-12-28T04:12:52;2.25;;;1.80;;
9934;SDS011;5006;41.828;23.478;2023-12-28T04:14:04;4.45;;;2.42;;
9934;SDS011;5006;41.828;23.478;2023-12-28T04:15:10;2.90;;;1.90;;
9934;SDS011;5006;41.828;23.478;2023-12-28T04:16:15;3.45;;;2.67;;
9934;SDS011;5006;41.828;23.478;2023-12-28T04:17:22;3.53;;;2.33;;
9934;SDS011;5006;41.828;23.478;2023-12-28T04:18:28;4.53;;;1.98;;
9934;SDS011;5006;41.828;23.478;2023-12-28T04:19:34;3.42;;;2.22;;
9934;SDS011;5006;41.828;23.478;2023-12-28T04:20:42;5.32;;;3.85;;
9934;SDS011;5006;41.828;23.478;2023-12-28T04:21:50;2.92;;;2.17;;
9934;SDS011;5006;41.828;23.478;2023-12-28T04:22:56;3.53;;;1.67;;
9934;SDS011;5006;41.828;23.478;2023-12-28T04:24:02;3.65;;;1.52;;
9934;SDS011;5006;41.828;23.478;2023-12-28T04:25:08;3.08;;;2.20;;
9934;SDS011;5006;41.828;23.478;2023-12-28T04:26:17;3.30;;;2.00;;
9934;SDS011;5006;41.828;23.478;2023-12-28T04:27:24;3.65;;;2.30;;
9934;SDS011;5006;41.828;23.478;2023-12-28T04:28:31;3.42;;;2.00;;
9934;SDS011;5006;41.828;23.478;2023-12-28T04:29:40;4.28;;;1.80;;
9934;SDS011;5006;41.828;23.478;2023-12-28T04:30:47;1.60;;;1.35;;
9934;SDS011;5006;41.828;23.478;2023-12-28T04:31:53;2.15;;;1.40;;
9934;SDS011;5006;41.828;23.478;2023-12-28T04:33:00;1.90;;;1.45;;
9934;SDS011;5006;41.828;23.478;2023-12-28T04:34:06;2.85;;;1.60;;
9934;SDS011;5006;41.828;23.478;2023-12-28T04:35:13;2.45;;;1.40;;
9934;SDS011;5006;41.828;23.478;2023-12-28T04:36:18;2.97;;;1.25;;
9934;SDS011;5006;41.828;23.478;2023-12-28T04:37:24;2.50;;;1.58;;
9934;SDS011;5006;41.828;23.478;2023-12-28T04:38:31;1.85;;;1.50;;
9934;SDS011;5006;41.828;23.478;2023-12-28T04:39:38;3.20;;;1.30;;
9934;SDS011;5006;41.828;23.478;2023-12-28T04:40:43;2.20;;;1.40;;
9934;SDS011;5006;41.828;23.478;2023-12-28T04:41:50;1.95;;;1.40;;
9934;SDS011;5006;41.828;23.478;2023-12-28T04:42:55;1.98;;;1.30;;
9934;SDS011;5006;41.828;23.478;2023-12-28T04:44:01;2.58;;;1.40;;
9934;SDS011;5006;41.828;23.478;2023-12-28T04:45:09;2.65;;;1.60;;
9934;SDS011;5006;41.828;23.478;2023-12-28T04:46:16;1.55;;;1.35;;
9934;SDS011;5006;41.828;23.478;2023-12-28T04:47:21;1.85;;;1.40;;
9934;SDS011;5006;41.828;23.478;2023-12-28T04:48:27;2.47;;;1.80;;
9934;SDS011;5006;41.828;23.478;2023-12-28T04:49:32;2.83;;;2.00;;
9934;SDS011;5006;41.828;23.478;2023-12-28T04:50:38;2.33;;;1.60;;
9934;SDS011;5006;41.828;23.478;2023-12-28T04:51:44;2.60;;;1.60;;
9934;SDS011;5006;41.828;23.478;2023-12-28T04:52:51;3.60;;;1.70;;
9934;SDS011;5006;41.828;23.478;2023-12-28T04:53:57;1.92;;;1.42;;
9934;SDS011;5006;41.828;23.478;2023-12-28T04:55:03;2.55;;;1.30;;
9934;SDS011;5006;41.828;23.478;2023-12-28T04:56:09;2.00;;;1.45;;
9934;SDS011;5006;41.828;23.478;2023-12-28T04:57:15;2.58;;;1.40;;
9934;SDS011;5006;41.828;23.478;2023-12-28T04:58:20;1.40;;;1.20;;
9934;SDS011;5006;41.828;23.478;2023-12-28T04:59:26;2.45;;;1.52;;
9934;SDS011;5006;41.828;23.478;2023-12-28T05:00:34;2.72;;;1.75;;
9934;SDS011;5006;41.828;23.478;2023-12-28T05:01:41;2.35;;;1.40;;
9934;SDS011;5006;41.828;23.478;2023-12-28T05:02:46;2.65;;;1.60;;
9934;SDS011;5006;41.828;23.478;2023-12-28T05:03:53;2.75;;;1.33;;
9934;SDS011;5006;41.828;23.478;2023-12-28T05:05:00;1.88;;;1.35;;
9934;SDS011;5006;41.828;23.478;2023-12-28T05:06:07;1.40;;;1.10;;
9934;SDS011;5006;41.828;23.478;2023-12-28T05:07:12;1.45;;;1.20;;
9934;SDS011;5006;41.828;23.478;2023-12-28T05:08:18;2.05;;;1.55;;
9934;SDS011;5006;41.828;23.478;2023-12-28T05:09:23;2.60;;;1.73;;
9934;SDS011;5006;41.828;23.478;2023-12-28T05:10:29;4.82;;;1.40;;
9934;SDS011;5006;41.828;23.478;2023-12-28T05:11:34;2.47;;;1.40;;
9934;SDS011;5006;41.828;23.478;2023-12-28T05:12:40;1.98;;;1.48;;
9934;SDS011;5006;41.828;23.478;2023-12-28T05:13:46;2.20;;;1.42;;
9934;SDS011;5006;41.828;23.478;2023-12-28T05:14:52;1.77;;;1.08;;
9934;SDS011;5006;41.828;23.478;2023-12-28T05:15:59;1.63;;;1.10;;
9934;SDS011;5006;41.828;23.478;2023-12-28T05:17:06;1.27;;;1.10;;
9934;SDS011;5006;41.828;23.478;2023-12-28T05:18:11;2.03;;;1.50;;
9934;SDS011;5006;41.828;23.478;2023-12-28T05:19:18;2.17;;;1.25;;
9934;SDS011;5006;41.828;23.478;2023-12-28T05:20:23;3.25;;;1.70;;
9934;SDS011;5006;41.828;23.478;2023-12-28T05:21:30;2.28;;;1.70;;
9934;SDS011;5006;41.828;23.478;2023-12-28T05:22:35;3.05;;;1.80;;
9934;SDS011;5006;41.828;23.478;2023-12-28T05:23:41;1.90;;;1.50;;
9934;SDS011;5006;41.828;23.478;2023-12-28T05:24:46;2.75;;;1.67;;
9934;SDS011;5006;41.828;23.478;2023-12-28T05:25:53;1.75;;;1.55;;
9934;SDS011;5006;41.828;23.478;2023-12-28T05:26:58;2.55;;;1.75;;
9934;SDS011;5006;41.828;23.478;2023-12-28T05:28:03;2.70;;;1.70;;
9934;SDS011;5006;41.828;23.478;2023-12-28T05:29:10;2.97;;;1.80;;
9934;SDS011;5006;41.828;23.478;2023-12-28T05:30:15;3.17;;;2.38;;
9934;SDS011;5006;41.828;23.478;2023-12-28T05:31:24;3.53;;;2.53;;
9934;SDS011;5006;41.828;23.478;2023-12-28T05:32:29;2.70;;;2.00;;
9934;SDS011;5006;41.828;23.478;2023-12-28T05:33:36;2.70;;;1.92;;
9934;SDS011;5006;41.828;23.478;2023-12-28T05:34:41;2.33;;;2.00;;
9934;SDS011;5006;41.828;23.478;2023-12-28T05:35:48;2.40;;;2.00;;
9934;SDS011;5006;41.828;23.478;2023-12-28T05:36:53;2.17;;;1.48;;
9934;SDS011;5006;41.828;23.478;2023-12-28T05:37:59;2.20;;;1.52;;
9934;SDS011;5006;41.828;23.478;2023-12-28T05:39:04;1.48;;;1.27;;
9934;SDS011;5006;41.828;23.478;2023-12-28T05:40:11;2.88;;;1.67;;
9934;SDS011;5006;41.828;23.478;2023-12-28T05:41:17;2.40;;;1.70;;
9934;SDS011;5006;41.828;23.478;2023-12-28T05:42:24;2.15;;;1.80;;
9934;SDS011;5006;41.828;23.478;2023-12-28T05:43:30;2.08;;;1.50;;
9934;SDS011;5006;41.828;23.478;2023-12-28T05:44:37;2.00;;;1.80;;
9934;SDS011;5006;41.828;23.478;2023-12-28T05:45:42;2.90;;;2.60;;
9934;SDS011;5006;41.828;23.478;2023-12-28T05:46:49;6.13;;;4.35;;
9934;SDS011;5006;41.828;23.478;2023-12-28T05:47:54;5.00;;;3.97;;
9934;SDS011;5006;41.828;23.478;2023-12-28T05:49:00;7.90;;;4.70;;
9934;SDS011;5006;41.828;23.478;2023-12-28T05:50:05;5.78;;;3.95;;
9934;SDS011;5006;41.828;23.478;2023-12-28T05:51:12;4.40;;;2.80;;
9934;SDS011;5006;41.828;23.478;2023-12-28T05:52:18;4.78;;;3.85;;
9934;SDS011;5006;41.828;23.478;2023-12-28T05:53:25;3.30;;;2.60;;
9934;SDS011;5006;41.828;23.478;2023-12-28T05:54:32;5.30;;;4.15;;
9934;SDS011;5006;41.828;23.478;2023-12-28T05:55:39;5.88;;;4.38;;
9934;SDS011;5006;41.828;23.478;2023-12-28T05:56:45;4.45;;;3.75;;
9934;SDS011;5006;41.828;23.478;2023-12-28T05:57:51;3.50;;;3.05;;
9934;SDS011;5006;41.828;23.478;2023-12-28T05:58:56;3.85;;;2.60;;
9934;SDS011;5006;41.828;23.478;2023-12-28T06:00:03;5.20;;;3.78;;
9934;SDS011;5006;41.828;23.478;2023-12-28T06:01:17;4.70;;;3.30;;
9934;SDS011;5006;41.828;23.478;2023-12-28T06:02:26;6.38;;;3.90;;
9934;SDS011;5006;41.828;23.478;2023-12-28T06:03:31;5.85;;;4.10;;
9934;SDS011;5006;41.828;23.478;2023-12-28T06:04:38;4.22;;;3.33;;
9934;SDS011;5006;41.828;23.478;2023-12-28T06:05:43;6.30;;;4.60;;
9934;SDS011;5006;41.828;23.478;2023-12-28T06:06:50;6.20;;;4.15;;
9934;SDS011;5006;41.828;23.478;2023-12-28T06:07:56;4.30;;;2.92;;
9934;SDS011;5006;41.828;23.478;2023-12-28T06:09:03;5.47;;;3.97;;
9934;SDS011;5006;41.828;23.478;2023-12-28T06:10:09;5.13;;;3.67;;
9934;SDS011;5006;41.828;23.478;2023-12-28T06:11:17;6.85;;;4.40;;
9934;SDS011;5006;41.828;23.478;2023-12-28T06:12:22;5.65;;;3.60;;
9934;SDS011;5006;41.828;23.478;2023-12-28T06:13:29;4.50;;;3.33;;
9934;SDS011;5006;41.828;23.478;2023-12-28T06:14:35;4.05;;;3.00;;
9934;SDS011;5006;41.828;23.478;2023-12-28T06:15:41;5.43;;;3.03;;
9934;SDS011;5006;41.828;23.478;2023-12-28T06:16:48;4.43;;;2.72;;
9934;SDS011;5006;41.828;23.478;2023-12-28T06:17:56;3.13;;;2.33;;
9934;SDS011;5006;41.828;23.478;2023-12-28T06:19:02;4.03;;;3.15;;
9934;SDS011;5006;41.828;23.478;2023-12-28T06:20:08;4.30;;;2.60;;
9934;SDS011;5006;41.828;23.478;2023-12-28T06:21:16;5.88;;;2.60;;
9934;SDS011;5006;41.828;23.478;2023-12-28T06:22:23;4.85;;;2.75;;
9934;SDS011;5006;41.828;23.478;2023-12-28T06:23:32;4.75;;;3.55;;
9934;SDS011;5006;41.828;23.478;2023-12-28T06:24:39;6.25;;;4.68;;
9934;SDS011;5006;41.828;23.478;2023-12-28T06:25:45;6.47;;;3.75;;
9934;SDS011;5006;41.828;23.478;2023-12-28T06:26:52;8.05;;;3.88;;
9934;SDS011;5006;41.828;23.478;2023-12-28T06:27:58;6.25;;;3.17;;
9934;SDS011;5006;41.828;23.478;2023-12-28T06:29:06;6.70;;;4.10;;
9934;SDS011;5006;41.828;23.478;2023-12-28T06:30:12;6.38;;;3.88;;
9934;SDS011;5006;41.828;23.478;2023-12-28T06:31:19;3.05;;;2.38;;
9934;SDS011;5006;41.828;23.478;2023-12-28T06:32:25;3.92;;;2.90;;
9934;SDS011;5006;41.828;23.478;2023-12-28T06:33:33;3.97;;;2.53;;
9934;SDS011;5006;41.828;23.478;2023-12-28T06:34:39;3.08;;;2.30;;
9934;SDS011;5006;41.828;23.478;2023-12-28T06:35:46;4.35;;;2.42;;
9934;SDS011;5006;41.828;23.478;2023-12-28T06:36:52;4.18;;;2.45;;
9934;SDS011;5006;41.828;23.478;2023-12-28T06:37:59;3.97;;;2.45;;
9934;SDS011;5006;41.828;23.478;2023-12-28T06:39:06;3.50;;;2.75;;
9934;SDS011;5006;41.828;23.478;2023-12-28T06:40:12;4.57;;;2.88;;
9934;SDS011;5006;41.828;23.478;2023-12-28T06:41:18;4.70;;;3.10;;
9934;SDS011;5006;41.828;23.478;2023-12-28T06:42:24;4.80;;;2.25;;
9934;SDS011;5006;41.828;23.478;2023-12-28T06:43:30;2.60;;;2.28;;
9934;SDS011;5006;41.828;23.478;2023-12-28T06:44:35;5.00;;;3.38;;
9934;SDS011;5006;41.828;23.478;2023-12-28T06:45:41;3.47;;;2.45;;
9934;SDS011;5006;41.828;23.478;2023-12-28T06:46:46;2.80;;;1.95;;
9934;SDS011;5006;41.828;23.478;2023-12-28T06:47:53;3.92;;;2.65;;